Archival Weather

Norman Y Mineta San Jose Intl

San Jose, California (KSJC)

Report from: Saturday, February 3, 2024 1:53 AM PST
Current time: Friday, June 14, 2024 6:13 AM PDT

Current weather – Weather history – Daily summaries
Weather forecast

Temperature9.4°C (48.9°F)
Wind chill7.7°C (45.9°F)
Dew point5.6°C (42.1°F)
Winds 6 kts (3.1 m/s, 6.9 mph) South-Southeast (160°)
Visibility10 mi. (16.1 km)
Clouds Few clouds 4,000 ft. (1,219 m)
Ceiling: Broken clouds 5,000 ft. (1,524 m)
Altimeter30.03 in.Hg (1017 mB)
Relative humidity77 %
Density altitude-658 ft. (-201 m)
Sea-level pressure101.7 kPa (1017 mB, 30.03 in.Hg)
Remarks Fully automated report
Automated weather observing station with precipitation discriminator
Flight conditions Visual Meteorological Conditions
Raw dataKSJC 030953Z AUTO 16006KT 10SM FEW040 BKN050 09/06 A3003 RMK AO2 SLP168 T00940056
An error has occurred. This application may no longer respond until reloaded. Reload 🗙